»·PEaware :: SWA3510 KBUR-KLAS

SWA3510 :: KBUR-KLAS

FLIGHT INFORMATION

Flight Status: Arrived
Operator:
Southwest Airlines
More flights by this operator :: More flights under this callsign
Pilot: Skye D. (10623)
Aircraft: BOEING 737-300
(B733)
More flights by this aircraft type
Origin: KBUR Bob Hope-Burbank
United States
Destination: KLAS McCarran Intl
United States
More flights between these airports :: More routes between these airports
Route: +SLAPP1 MISEN KEPEC6
File this flight plan on PilotEdge
Remarks:
Altitude:
(Current/Filed)
23,000ft
Speed:
(Current/Filed)
456kts
Departed: 05-Feb-18 08:32 AM
Arrived: 05-Feb-18 09:22 AM
Distance/Time
Traveled:
194nm/0:50
Distance/Time
To Go:
Arrived

Flight Plot

Page will automatically refresh every two minutes.

Flight plan parsing failed; only flown route is shown


Map Options




Map Legend


Flown Route
Filed Route
Departure Airport
Arrival Airport
Navaid (VOR, NDB)
Fix

Horizontal Profiles

Position Reports

Time Latitude Longitude Heading Altitude Ground
Speed
05-Feb-18 08:14 34.196820 -118.352396 180 784ft 0kts
05-Feb-18 08:15 34.196820 -118.352396 180 784ft 0kts
05-Feb-18 08:16 34.196820 -118.352396 180 784ft 0kts
05-Feb-18 08:17 34.196820 -118.352396 180 784ft 0kts
05-Feb-18 08:18 34.196820 -118.352396 180 784ft 0kts
05-Feb-18 08:19 34.196820 -118.352396 180 784ft 0kts
05-Feb-18 08:20 34.196820 -118.352396 180 784ft 0kts
05-Feb-18 08:21 34.196820 -118.352396 180 784ft 0kts
05-Feb-18 08:22 34.196820 -118.352396 180 784ft 0kts
05-Feb-18 08:23 34.196820 -118.352396 180 784ft 0kts
05-Feb-18 08:24 34.196820 -118.352396 180 784ft 0kts
05-Feb-18 08:25 34.196820 -118.352396 180 784ft 0kts
05-Feb-18 08:26 34.196820 -118.352396 180 784ft 0kts
05-Feb-18 08:27 34.196820 -118.352396 180 784ft 0kts
05-Feb-18 08:28 34.197176 -118.352017 263 784ft 2kts
05-Feb-18 08:29 34.197178 -118.351937 276 784ft 0kts
05-Feb-18 08:30 34.197178 -118.351937 276 784ft 0kts
05-Feb-18 08:31 34.197178 -118.351937 276 784ft 0kts
05-Feb-18 08:32 34.197196 -118.352094 280 784ft 5kts
05-Feb-18 08:33 34.199909 -118.355675 347 784ft 27kts
05-Feb-18 08:34 34.205990 -118.357301 348 784ft 21kts
05-Feb-18 08:35 34.211121 -118.358773 342 784ft 12kts
05-Feb-18 08:36 34.211590 -118.359129 321 784ft 0kts
05-Feb-18 08:37 34.211761 -118.359315 310 784ft 6kts
05-Feb-18 08:38 34.206241 -118.358785 168 784ft 120kts
05-Feb-18 08:39 34.165878 -118.357058 211 2510ft 215kts
05-Feb-18 08:40 34.123590 -118.407006 251 3916ft 231kts
05-Feb-18 08:41 34.158661 -118.460198 356 3994ft 262kts
05-Feb-18 08:42 34.224177 -118.437965 17 4286ft 266kts
05-Feb-18 08:43 34.289095 -118.410636 19 7578ft 277kts
05-Feb-18 08:44 34.359438 -118.378800 18 10424ft 303kts
05-Feb-18 08:45 34.441735 -118.341736 18 12685ft 340kts
05-Feb-18 08:46 34.516126 -118.279707 37 15222ft 357kts
05-Feb-18 08:47 34.579224 -118.194935 78 17431ft 378kts
05-Feb-18 08:48 34.608012 -118.079720 61 19433ft 387kts
05-Feb-18 08:49 34.647941 -117.962097 67 21342ft 400kts
05-Feb-18 08:50 34.685126 -117.838354 68 22991ft 413kts
05-Feb-18 08:51 34.721992 -117.714535 68 23135ft 400kts
05-Feb-18 08:52 34.758298 -117.592075 68 23147ft 399kts
05-Feb-18 08:53 34.794325 -117.470028 68 23145ft 395kts
05-Feb-18 08:54 34.830099 -117.348318 68 23147ft 395kts
05-Feb-18 08:55 34.866028 -117.226893 68 23148ft 395kts
05-Feb-18 08:56 34.901496 -117.105277 68 23138ft 394kts
05-Feb-18 08:57 34.936515 -116.984608 68 23138ft 394kts
05-Feb-18 08:58 34.971685 -116.862897 68 23138ft 394kts
05-Feb-18 08:59 35.009060 -116.744278 50 23131ft 389kts
05-Feb-18 09:00 35.077678 -116.647168 49 23147ft 390kts
05-Feb-18 09:01 35.141662 -116.545806 50 23148ft 390kts
05-Feb-18 09:02 35.205632 -116.443278 50 23147ft 390kts
05-Feb-18 09:03 35.269077 -116.341204 50 23136ft 389kts
05-Feb-18 09:04 35.333701 -116.237582 50 23048ft 400kts
05-Feb-18 09:05 35.398462 -116.132761 50 21005ft 387kts
05-Feb-18 09:06 35.460793 -116.031583 50 18870ft 378kts
05-Feb-18 09:07 35.520705 -115.934042 50 16758ft 366kts
05-Feb-18 09:08 35.578571 -115.839567 51 14704ft 344kts
05-Feb-18 09:09 35.632378 -115.751487 50 13083ft 310kts
05-Feb-18 09:10 35.683122 -115.670269 44 13023ft 308kts
05-Feb-18 09:11 35.740760 -115.596437 40 13017ft 306kts
05-Feb-18 09:12 35.816428 -115.571703 0 13019ft 294kts
05-Feb-18 09:13 35.894943 -115.567542 0 13019ft 295kts
05-Feb-18 09:14 35.969745 -115.546832 38 12987ft 293kts
05-Feb-18 09:15 36.005059 -115.456807 66 11895ft 312kts
05-Feb-18 09:16 36.030045 -115.367748 89 10928ft 279kts
05-Feb-18 09:17 36.023835 -115.276747 92 9937ft 275kts
05-Feb-18 09:18 36.017449 -115.187625 92 8969ft 270kts
05-Feb-18 09:19 36.011499 -115.100630 92 7991ft 265kts
05-Feb-18 09:20 36.006303 -115.016691 92 6588ft 243kts
05-Feb-18 09:21 36.002430 -114.943376 79 5627ft 204kts
05-Feb-18 09:22 36.039831 -114.916549 346 4458ft 166kts
05-Feb-18 09:23 36.073747 -114.949901 290 4398ft 167kts
05-Feb-18 09:24 36.074026 -115.003270 268 3977ft 159kts
05-Feb-18 09:25 36.073566 -115.051642 271 3331ft 159kts
05-Feb-18 09:26 36.073613 -115.099233 272 2700ft 146kts
05-Feb-18 09:27 36.073659 -115.139524 270 2148ft 91kts
05-Feb-18 09:28 36.074998 -115.146459 329 2148ft 9kts
05-Feb-18 09:29 36.078843 -115.147303 344 2148ft 15kts
05-Feb-18 09:30 36.079939 -115.147092 56 2148ft 0kts
05-Feb-18 09:31 36.079939 -115.147092 56 2148ft 0kts

Navigation Log

Ident Type
Flight plan parsing failed, navigation log unavailable